sensor_id;sensor_type;location;lat;lon;timestamp;P1;durP1;ratioP1;P2;durP2;ratioP2
58992;SDS011;44782;0.000;0.000;2022-10-31T00:01:11;31.17;;;26.57;;
58992;SDS011;44782;0.000;0.000;2022-10-31T00:03:38;30.40;;;26.30;;
58992;SDS011;44782;0.000;0.000;2022-10-31T00:05:53;30.37;;;26.50;;
58992;SDS011;44782;0.000;0.000;2022-10-31T00:08:09;29.63;;;26.40;;
58992;SDS011;44782;0.000;0.000;2022-10-31T00:10:24;30.57;;;26.23;;
58992;SDS011;44782;0.000;0.000;2022-10-31T00:12:40;30.30;;;26.13;;
58992;SDS011;44782;0.000;0.000;2022-10-31T00:14:56;27.73;;;24.73;;
58992;SDS011;44782;0.000;0.000;2022-10-31T00:17:11;27.33;;;24.43;;
58992;SDS011;44782;0.000;0.000;2022-10-31T00:19:27;27.20;;;23.73;;
58992;SDS011;44782;0.000;0.000;2022-10-31T00:21:42;28.83;;;25.33;;
58992;SDS011;44782;0.000;0.000;2022-10-31T00:23:59;26.90;;;24.00;;
58992;SDS011;44782;0.000;0.000;2022-10-31T00:26:15;26.53;;;23.73;;
58992;SDS011;44782;0.000;0.000;2022-10-31T00:28:31;24.60;;;22.00;;
58992;SDS011;44782;0.000;0.000;2022-10-31T00:30:46;22.80;;;20.50;;
58992;SDS011;44782;0.000;0.000;2022-10-31T00:33:05;22.73;;;20.33;;
58992;SDS011;44782;0.000;0.000;2022-10-31T00:35:21;23.20;;;20.80;;
58992;SDS011;44782;0.000;0.000;2022-10-31T00:37:37;23.27;;;20.77;;
58992;SDS011;44782;0.000;0.000;2022-10-31T00:39:52;22.27;;;19.87;;
58992;SDS011;44782;0.000;0.000;2022-10-31T00:42:08;22.37;;;20.07;;
58992;SDS011;44782;0.000;0.000;2022-10-31T00:44:23;21.50;;;19.30;;
58992;SDS011;44782;0.000;0.000;2022-10-31T00:46:39;21.13;;;18.77;;
58992;SDS011;44782;0.000;0.000;2022-10-31T00:48:55;20.27;;;18.10;;
58992;SDS011;44782;0.000;0.000;2022-10-31T00:51:11;19.27;;;17.27;;
58992;SDS011;44782;0.000;0.000;2022-10-31T00:53:26;20.37;;;18.17;;
58992;SDS011;44782;0.000;0.000;2022-10-31T00:55:42;17.90;;;16.03;;
58992;SDS011;44782;0.000;0.000;2022-10-31T00:57:58;18.13;;;16.17;;
58992;SDS011;44782;0.000;0.000;2022-10-31T01:00:14;18.80;;;16.90;;
58992;SDS011;44782;0.000;0.000;2022-10-31T01:02:30;17.63;;;15.77;;
58992;SDS011;44782;0.000;0.000;2022-10-31T01:04:46;17.97;;;16.07;;
58992;SDS011;44782;0.000;0.000;2022-10-31T01:07:01;18.07;;;15.60;;
58992;SDS011;44782;0.000;0.000;2022-10-31T01:09:17;18.23;;;16.33;;
58992;SDS011;44782;0.000;0.000;2022-10-31T01:11:33;17.20;;;15.40;;
58992;SDS011;44782;0.000;0.000;2022-10-31T01:13:52;16.80;;;15.03;;
58992;SDS011;44782;0.000;0.000;2022-10-31T01:16:10;16.33;;;14.63;;
58992;SDS011;44782;0.000;0.000;2022-10-31T01:18:28;14.87;;;13.37;;
58992;SDS011;44782;0.000;0.000;2022-10-31T01:20:46;14.97;;;13.43;;
58992;SDS011;44782;0.000;0.000;2022-10-31T01:23:01;14.93;;;13.47;;
58992;SDS011;44782;0.000;0.000;2022-10-31T01:25:17;15.40;;;13.90;;
58992;SDS011;44782;0.000;0.000;2022-10-31T01:27:32;13.90;;;12.50;;
58992;SDS011;44782;0.000;0.000;2022-10-31T01:29:48;14.73;;;13.23;;
58992;SDS011;44782;0.000;0.000;2022-10-31T01:32:04;14.47;;;13.00;;
58992;SDS011;44782;0.000;0.000;2022-10-31T01:34:19;14.33;;;12.93;;
58992;SDS011;44782;0.000;0.000;2022-10-31T01:36:36;12.97;;;11.67;;
58992;SDS011;44782;0.000;0.000;2022-10-31T01:38:53;13.10;;;11.87;;
58992;SDS011;44782;0.000;0.000;2022-10-31T01:41:13;13.10;;;11.80;;
58992;SDS011;44782;0.000;0.000;2022-10-31T01:43:44;12.87;;;11.67;;
58992;SDS011;44782;0.000;0.000;2022-10-31T01:46:02;12.07;;;10.73;;
58992;SDS011;44782;0.000;0.000;2022-10-31T01:48:19;12.40;;;11.10;;
58992;SDS011;44782;0.000;0.000;2022-10-31T01:50:39;12.00;;;10.83;;
58992;SDS011;44782;0.000;0.000;2022-10-31T01:52:55;12.00;;;10.77;;
58992;SDS011;44782;0.000;0.000;2022-10-31T01:55:16;12.10;;;10.90;;
58992;SDS011;44782;0.000;0.000;2022-10-31T01:57:35;11.33;;;10.23;;
58992;SDS011;44782;0.000;0.000;2022-10-31T01:59:56;12.20;;;11.00;;
58992;SDS011;44782;0.000;0.000;2022-10-31T02:02:15;11.63;;;10.47;;
58992;SDS011;44782;0.000;0.000;2022-10-31T02:04:32;11.67;;;10.17;;
58992;SDS011;44782;0.000;0.000;2022-10-31T02:09:13;11.43;;;10.33;;
58992;SDS011;44782;0.000;0.000;2022-10-31T02:11:30;10.93;;;9.83;;
58992;SDS011;44782;0.000;0.000;2022-10-31T02:13:47;10.90;;;9.80;;
58992;SDS011;44782;0.000;0.000;2022-10-31T02:16:03;10.30;;;9.30;;
58992;SDS011;44782;0.000;0.000;2022-10-31T02:18:19;9.93;;;9.03;;
58992;SDS011;44782;0.000;0.000;2022-10-31T02:20:41;9.60;;;8.70;;
58992;SDS011;44782;0.000;0.000;2022-10-31T02:25:56;9.50;;;8.60;;
58992;SDS011;44782;0.000;0.000;2022-10-31T02:31:17;9.20;;;8.30;;
58992;SDS011;44782;0.000;0.000;2022-10-31T02:33:47;9.60;;;8.70;;
58992;SDS011;44782;0.000;0.000;2022-10-31T02:36:13;9.30;;;8.40;;
58992;SDS011;44782;0.000;0.000;2022-10-31T02:39:06;8.53;;;7.73;;
58992;SDS011;44782;0.000;0.000;2022-10-31T02:43:54;9.03;;;8.13;;
58992;SDS011;44782;0.000;0.000;2022-10-31T02:48:48;7.93;;;7.23;;
58992;SDS011;44782;0.000;0.000;2022-10-31T02:51:08;8.83;;;8.00;;
58992;SDS011;44782;0.000;0.000;2022-10-31T02:53:26;8.90;;;8.00;;
58992;SDS011;44782;0.000;0.000;2022-10-31T02:58:11;8.10;;;7.30;;
58992;SDS011;44782;0.000;0.000;2022-10-31T03:00:31;8.60;;;7.70;;
58992;SDS011;44782;0.000;0.000;2022-10-31T03:03:12;7.80;;;7.00;;
58992;SDS011;44782;0.000;0.000;2022-10-31T03:05:47;8.20;;;7.50;;
58992;SDS011;44782;0.000;0.000;2022-10-31T03:10:52;7.50;;;6.83;;
58992;SDS011;44782;0.000;0.000;2022-10-31T03:15:42;7.63;;;6.93;;
58992;SDS011;44782;0.000;0.000;2022-10-31T03:18:04;7.27;;;6.57;;
58992;SDS011;44782;0.000;0.000;2022-10-31T03:20:28;7.47;;;6.77;;
58992;SDS011;44782;0.000;0.000;2022-10-31T03:22:50;7.00;;;6.40;;
58992;SDS011;44782;0.000;0.000;2022-10-31T03:25:07;6.90;;;6.20;;
58992;SDS011;44782;0.000;0.000;2022-10-31T03:27:24;6.70;;;6.10;;
58992;SDS011;44782;0.000;0.000;2022-10-31T03:29:42;6.80;;;6.20;;
58992;SDS011;44782;0.000;0.000;2022-10-31T03:32:06;6.83;;;6.23;;
58992;SDS011;44782;0.000;0.000;2022-10-31T03:34:26;6.23;;;5.63;;
58992;SDS011;44782;0.000;0.000;2022-10-31T03:36:43;6.70;;;6.10;;
58992;SDS011;44782;0.000;0.000;2022-10-31T03:39:00;6.60;;;6.00;;
58992;SDS011;44782;0.000;0.000;2022-10-31T03:41:20;6.57;;;5.97;;
58992;SDS011;44782;0.000;0.000;2022-10-31T03:43:40;6.63;;;6.03;;
58992;SDS011;44782;0.000;0.000;2022-10-31T03:46:01;6.50;;;6.00;;
58992;SDS011;44782;0.000;0.000;2022-10-31T03:48:18;6.70;;;6.07;;
58992;SDS011;44782;0.000;0.000;2022-10-31T03:50:38;6.50;;;5.90;;
58992;SDS011;44782;0.000;0.000;2022-10-31T03:53:05;6.47;;;5.87;;
58992;SDS011;44782;0.000;0.000;2022-10-31T03:55:27;6.10;;;5.57;;
58992;SDS011;44782;0.000;0.000;2022-10-31T04:00:17;5.37;;;4.87;;
58992;SDS011;44782;0.000;0.000;2022-10-31T04:02:33;6.33;;;5.67;;
58992;SDS011;44782;0.000;0.000;2022-10-31T04:04:53;5.90;;;5.40;;
58992;SDS011;44782;0.000;0.000;2022-10-31T04:07:10;5.73;;;5.23;;
58992;SDS011;44782;0.000;0.000;2022-10-31T04:09:28;5.83;;;5.27;;
58992;SDS011;44782;0.000;0.000;2022-10-31T04:11:48;5.67;;;5.17;;
58992;SDS011;44782;0.000;0.000;2022-10-31T04:14:08;5.63;;;5.13;;
58992;SDS011;44782;0.000;0.000;2022-10-31T04:16:26;5.47;;;4.97;;
58992;SDS011;44782;0.000;0.000;2022-10-31T04:18:42;5.70;;;5.20;;
58992;SDS011;44782;0.000;0.000;2022-10-31T04:21:05;5.17;;;4.77;;
58992;SDS011;44782;0.000;0.000;2022-10-31T04:23:23;5.73;;;5.23;;
58992;SDS011;44782;0.000;0.000;2022-10-31T04:25:40;5.63;;;5.13;;
58992;SDS011;44782;0.000;0.000;2022-10-31T04:27:56;5.43;;;4.93;;
58992;SDS011;44782;0.000;0.000;2022-10-31T04:30:11;5.10;;;4.70;;
58992;SDS011;44782;0.000;0.000;2022-10-31T04:32:27;4.90;;;4.50;;
58992;SDS011;44782;0.000;0.000;2022-10-31T04:34:43;4.93;;;4.53;;
58992;SDS011;44782;0.000;0.000;2022-10-31T04:36:58;4.97;;;4.57;;
58992;SDS011;44782;0.000;0.000;2022-10-31T04:39:14;5.50;;;5.00;;
58992;SDS011;44782;0.000;0.000;2022-10-31T04:41:30;5.10;;;4.60;;
58992;SDS011;44782;0.000;0.000;2022-10-31T04:43:45;5.00;;;4.60;;
58992;SDS011;44782;0.000;0.000;2022-10-31T04:46:01;4.87;;;4.37;;
58992;SDS011;44782;0.000;0.000;2022-10-31T04:48:17;4.97;;;4.57;;
58992;SDS011;44782;0.000;0.000;2022-10-31T04:50:32;4.70;;;4.30;;
58992;SDS011;44782;0.000;0.000;2022-10-31T04:52:48;5.00;;;4.57;;
58992;SDS011;44782;0.000;0.000;2022-10-31T04:55:04;4.80;;;4.40;;
58992;SDS011;44782;0.000;0.000;2022-10-31T04:57:20;4.57;;;4.17;;
58992;SDS011;44782;0.000;0.000;2022-10-31T04:59:35;5.13;;;4.57;;
58992;SDS011;44782;0.000;0.000;2022-10-31T05:01:51;5.00;;;4.60;;
58992;SDS011;44782;0.000;0.000;2022-10-31T05:04:06;4.70;;;4.30;;
58992;SDS011;44782;0.000;0.000;2022-10-31T05:06:22;5.20;;;4.77;;
58992;SDS011;44782;0.000;0.000;2022-10-31T05:08:38;4.93;;;4.53;;
58992;SDS011;44782;0.000;0.000;2022-10-31T05:10:53;4.53;;;4.20;;
58992;SDS011;44782;0.000;0.000;2022-10-31T05:13:09;4.63;;;4.23;;
58992;SDS011;44782;0.000;0.000;2022-10-31T05:15:25;4.63;;;4.13;;
58992;SDS011;44782;0.000;0.000;2022-10-31T05:17:42;4.77;;;4.37;;
58992;SDS011;44782;0.000;0.000;2022-10-31T05:19:57;4.53;;;4.10;;
58992;SDS011;44782;0.000;0.000;2022-10-31T05:22:13;4.70;;;4.33;;
58992;SDS011;44782;0.000;0.000;2022-10-31T05:24:29;4.53;;;4.13;;
58992;SDS011;44782;0.000;0.000;2022-10-31T05:26:44;5.10;;;4.60;;
58992;SDS011;44782;0.000;0.000;2022-10-31T05:29:00;4.60;;;4.20;;
58992;SDS011;44782;0.000;0.000;2022-10-31T05:31:16;4.20;;;3.90;;
58992;SDS011;44782;0.000;0.000;2022-10-31T05:33:31;4.53;;;4.13;;
58992;SDS011;44782;0.000;0.000;2022-10-31T05:35:47;4.10;;;3.80;;
58992;SDS011;44782;0.000;0.000;2022-10-31T05:38:03;4.23;;;3.83;;
58992;SDS011;44782;0.000;0.000;2022-10-31T05:40:19;4.50;;;4.10;;
58992;SDS011;44782;0.000;0.000;2022-10-31T05:42:37;4.30;;;3.90;;
58992;SDS011;44782;0.000;0.000;2022-10-31T05:44:53;4.43;;;4.10;;
58992;SDS011;44782;0.000;0.000;2022-10-31T05:47:09;4.40;;;4.00;;
58992;SDS011;44782;0.000;0.000;2022-10-31T05:49:25;4.80;;;4.10;;
58992;SDS011;44782;0.000;0.000;2022-10-31T05:51:40;4.50;;;4.10;;
58992;SDS011;44782;0.000;0.000;2022-10-31T05:53:56;4.53;;;4.13;;
58992;SDS011;44782;0.000;0.000;2022-10-31T05:56:11;4.13;;;3.83;;
58992;SDS011;44782;0.000;0.000;2022-10-31T05:58:27;4.53;;;4.03;;
58992;SDS011;44782;0.000;0.000;2022-10-31T06:00:43;3.57;;;3.27;;
58992;SDS011;44782;0.000;0.000;2022-10-31T06:02:59;4.33;;;3.93;;
58992;SDS011;44782;0.000;0.000;2022-10-31T06:05:15;4.10;;;3.80;;
58992;SDS011;44782;0.000;0.000;2022-10-31T06:07:32;4.30;;;3.90;;
58992;SDS011;44782;0.000;0.000;2022-10-31T06:09:49;4.03;;;3.73;;
58992;SDS011;44782;0.000;0.000;2022-10-31T06:12:04;4.97;;;3.73;;
58992;SDS011;44782;0.000;0.000;2022-10-31T06:14:20;3.53;;;3.23;;
58992;SDS011;44782;0.000;0.000;2022-10-31T06:16:36;4.03;;;3.73;;
58992;SDS011;44782;0.000;0.000;2022-10-31T06:18:51;4.83;;;3.90;;
58992;SDS011;44782;0.000;0.000;2022-10-31T06:21:07;3.90;;;3.60;;
58992;SDS011;44782;0.000;0.000;2022-10-31T06:23:23;4.00;;;3.60;;
58992;SDS011;44782;0.000;0.000;2022-10-31T06:25:38;4.10;;;3.80;;
58992;SDS011;44782;0.000;0.000;2022-10-31T06:27:54;4.10;;;3.70;;
58992;SDS011;44782;0.000;0.000;2022-10-31T06:30:10;3.80;;;3.50;;
58992;SDS011;44782;0.000;0.000;2022-10-31T06:32:26;3.97;;;3.67;;
58992;SDS011;44782;0.000;0.000;2022-10-31T06:34:42;4.07;;;3.67;;
58992;SDS011;44782;0.000;0.000;2022-10-31T06:36:58;4.00;;;3.60;;
58992;SDS011;44782;0.000;0.000;2022-10-31T06:39:14;3.67;;;3.37;;
58992;SDS011;44782;0.000;0.000;2022-10-31T06:41:30;4.10;;;3.70;;
58992;SDS011;44782;0.000;0.000;2022-10-31T06:43:46;3.83;;;3.53;;
58992;SDS011;44782;0.000;0.000;2022-10-31T06:46:02;4.07;;;3.67;;
58992;SDS011;44782;0.000;0.000;2022-10-31T06:48:19;3.63;;;3.33;;
58992;SDS011;44782;0.000;0.000;2022-10-31T06:50:35;3.73;;;3.43;;
58992;SDS011;44782;0.000;0.000;2022-10-31T06:52:55;4.33;;;3.93;;
58992;SDS011;44782;0.000;0.000;2022-10-31T06:55:12;4.07;;;3.77;;
58992;SDS011;44782;0.000;0.000;2022-10-31T06:57:27;3.87;;;3.43;;
58992;SDS011;44782;0.000;0.000;2022-10-31T06:59:43;3.53;;;3.23;;
58992;SDS011;44782;0.000;0.000;2022-10-31T07:01:59;4.10;;;3.67;;
58992;SDS011;44782;0.000;0.000;2022-10-31T07:04:14;3.60;;;3.30;;
58992;SDS011;44782;0.000;0.000;2022-10-31T07:06:30;3.60;;;3.30;;
58992;SDS011;44782;0.000;0.000;2022-10-31T07:08:46;4.00;;;3.60;;
58992;SDS011;44782;0.000;0.000;2022-10-31T07:11:01;4.13;;;3.50;;
58992;SDS011;44782;0.000;0.000;2022-10-31T07:13:17;3.80;;;3.50;;
58992;SDS011;44782;0.000;0.000;2022-10-31T07:15:34;4.07;;;3.63;;
58992;SDS011;44782;0.000;0.000;2022-10-31T07:17:51;3.83;;;3.53;;
58992;SDS011;44782;0.000;0.000;2022-10-31T07:20:07;3.90;;;3.60;;
58992;SDS011;44782;0.000;0.000;2022-10-31T07:22:23;4.00;;;3.70;;
58992;SDS011;44782;0.000;0.000;2022-10-31T07:24:39;4.07;;;3.73;;
58992;SDS011;44782;0.000;0.000;2022-10-31T07:26:55;3.67;;;3.37;;
58992;SDS011;44782;0.000;0.000;2022-10-31T07:29:11;4.10;;;3.70;;
58992;SDS011;44782;0.000;0.000;2022-10-31T07:31:27;4.00;;;3.60;;
58992;SDS011;44782;0.000;0.000;2022-10-31T07:33:43;4.10;;;3.70;;
58992;SDS011;44782;0.000;0.000;2022-10-31T07:35:59;3.87;;;3.57;;
58992;SDS011;44782;0.000;0.000;2022-10-31T07:38:15;4.17;;;3.87;;
58992;SDS011;44782;0.000;0.000;2022-10-31T07:40:30;3.80;;;3.50;;
58992;SDS011;44782;0.000;0.000;2022-10-31T07:42:47;3.80;;;3.50;;
58992;SDS011;44782;0.000;0.000;2022-10-31T07:45:04;4.00;;;3.60;;
58992;SDS011;44782;0.000;0.000;2022-10-31T07:47:21;4.00;;;3.70;;
58992;SDS011;44782;0.000;0.000;2022-10-31T07:49:37;4.20;;;3.80;;
58992;SDS011;44782;0.000;0.000;2022-10-31T07:51:53;4.27;;;3.87;;
58992;SDS011;44782;0.000;0.000;2022-10-31T07:54:09;5.37;;;3.60;;
58992;SDS011;44782;0.000;0.000;2022-10-31T07:56:25;4.10;;;3.70;;
58992;SDS011;44782;0.000;0.000;2022-10-31T07:58:41;5.17;;;3.70;;
58992;SDS011;44782;0.000;0.000;2022-10-31T08:00:57;5.30;;;3.97;;
58992;SDS011;44782;0.000;0.000;2022-10-31T08:03:13;5.00;;;4.00;;
58992;SDS011;44782;0.000;0.000;2022-10-31T08:05:30;3.93;;;3.53;;
58992;SDS011;44782;0.000;0.000;2022-10-31T08:07:47;5.87;;;3.60;;
58992;SDS011;44782;0.000;0.000;2022-10-31T08:10:03;4.13;;;3.50;;
58992;SDS011;44782;0.000;0.000;2022-10-31T08:12:19;4.33;;;3.80;;
58992;SDS011;44782;0.000;0.000;2022-10-31T08:14:35;7.03;;;3.83;;
58992;SDS011;44782;0.000;0.000;2022-10-31T08:16:51;4.33;;;3.57;;
58992;SDS011;44782;0.000;0.000;2022-10-31T08:19:07;4.20;;;3.80;;
58992;SDS011;44782;0.000;0.000;2022-10-31T08:21:23;4.87;;;3.63;;
58992;SDS011;44782;0.000;0.000;2022-10-31T08:23:38;4.57;;;3.60;;
58992;SDS011;44782;0.000;0.000;2022-10-31T08:25:54;3.60;;;3.30;;
58992;SDS011;44782;0.000;0.000;2022-10-31T08:28:10;4.03;;;3.47;;
58992;SDS011;44782;0.000;0.000;2022-10-31T08:30:27;4.27;;;3.73;;
58992;SDS011;44782;0.000;0.000;2022-10-31T08:32:45;4.77;;;3.57;;
58992;SDS011;44782;0.000;0.000;2022-10-31T08:35:01;4.27;;;3.87;;
58992;SDS011;44782;0.000;0.000;2022-10-31T08:37:17;4.77;;;3.50;;
58992;SDS011;44782;0.000;0.000;2022-10-31T08:39:34;5.37;;;3.97;;
58992;SDS011;44782;0.000;0.000;2022-10-31T08:41:50;3.80;;;3.40;;
58992;SDS011;44782;0.000;0.000;2022-10-31T08:44:05;4.83;;;3.57;;
58992;SDS011;44782;0.000;0.000;2022-10-31T08:46:21;3.67;;;3.37;;
58992;SDS011;44782;0.000;0.000;2022-10-31T08:48:37;5.03;;;3.87;;
58992;SDS011;44782;0.000;0.000;2022-10-31T08:50:55;4.10;;;3.70;;
58992;SDS011;44782;0.000;0.000;2022-10-31T08:53:14;4.13;;;3.73;;
58992;SDS011;44782;0.000;0.000;2022-10-31T08:55:32;5.17;;;3.90;;
58992;SDS011;44782;0.000;0.000;2022-10-31T08:57:57;3.87;;;3.33;;
58992;SDS011;44782;0.000;0.000;2022-10-31T09:00:13;4.23;;;3.83;;
58992;SDS011;44782;0.000;0.000;2022-10-31T09:02:29;4.17;;;3.77;;
58992;SDS011;44782;0.000;0.000;2022-10-31T09:04:45;4.30;;;3.60;;
58992;SDS011;44782;0.000;0.000;2022-10-31T09:07:01;4.00;;;3.60;;
58992;SDS011;44782;0.000;0.000;2022-10-31T09:09:16;5.20;;;3.87;;
58992;SDS011;44782;0.000;0.000;2022-10-31T09:11:32;4.33;;;3.60;;
58992;SDS011;44782;0.000;0.000;2022-10-31T09:13:48;4.13;;;3.60;;
58992;SDS011;44782;0.000;0.000;2022-10-31T09:16:03;3.43;;;3.13;;
58992;SDS011;44782;0.000;0.000;2022-10-31T09:18:20;4.90;;;3.50;;
58992;SDS011;44782;0.000;0.000;2022-10-31T09:20:39;3.60;;;3.30;;
58992;SDS011;44782;0.000;0.000;2022-10-31T09:23:00;4.63;;;3.30;;
58992;SDS011;44782;0.000;0.000;2022-10-31T09:25:17;4.57;;;3.50;;
58992;SDS011;44782;0.000;0.000;2022-10-31T09:27:33;4.20;;;3.40;;
58992;SDS011;44782;0.000;0.000;2022-10-31T09:29:48;3.57;;;3.17;;
58992;SDS011;44782;0.000;0.000;2022-10-31T09:32:04;3.83;;;3.43;;
58992;SDS011;44782;0.000;0.000;2022-10-31T09:34:20;3.63;;;3.33;;
58992;SDS011;44782;0.000;0.000;2022-10-31T09:36:36;4.10;;;3.70;;
58992;SDS011;44782;0.000;0.000;2022-10-31T09:38:53;3.87;;;3.50;;
58992;SDS011;44782;0.000;0.000;2022-10-31T09:41:29;5.10;;;3.63;;
58992;SDS011;44782;0.000;0.000;2022-10-31T09:44:03;3.50;;;3.20;;
58992;SDS011;44782;0.000;0.000;2022-10-31T09:51:48;4.00;;;3.13;;
58992;SDS011;44782;0.000;0.000;2022-10-31T09:54:14;3.80;;;3.43;;
58992;SDS011;44782;0.000;0.000;2022-10-31T09:56:55;4.00;;;3.20;;
58992;SDS011;44782;0.000;0.000;2022-10-31T09:59:24;4.03;;;3.27;;
58992;SDS011;44782;0.000;0.000;2022-10-31T10:02:05;3.47;;;3.17;;
58992;SDS011;44782;0.000;0.000;2022-10-31T10:04:37;4.27;;;3.87;;
58992;SDS011;44782;0.000;0.000;2022-10-31T10:06:59;3.67;;;3.27;;
58992;SDS011;44782;0.000;0.000;2022-10-31T10:09:22;3.77;;;3.40;;
58992;SDS011;44782;0.000;0.000;2022-10-31T10:19:40;3.63;;;3.30;;
58992;SDS011;44782;0.000;0.000;2022-10-31T10:26:43;3.87;;;3.33;;
58992;SDS011;44782;0.000;0.000;2022-10-31T10:29:24;4.47;;;3.33;;
58992;SDS011;44782;0.000;0.000;2022-10-31T10:31:45;3.40;;;3.10;;
58992;SDS011;44782;0.000;0.000;2022-10-31T10:39:37;4.00;;;3.60;;
58992;SDS011;44782;0.000;0.000;2022-10-31T10:41:57;3.70;;;3.40;;
58992;SDS011;44782;0.000;0.000;2022-10-31T10:44:33;4.37;;;3.27;;
58992;SDS011;44782;0.000;0.000;2022-10-31T10:47:11;3.87;;;3.40;;
58992;SDS011;44782;0.000;0.000;2022-10-31T10:49:49;3.50;;;3.20;;
58992;SDS011;44782;0.000;0.000;2022-10-31T10:52:21;3.70;;;3.23;;
58992;SDS011;44782;0.000;0.000;2022-10-31T10:59:30;3.57;;;3.20;;
58992;SDS011;44782;0.000;0.000;2022-10-31T11:01:47;3.73;;;3.43;;
58992;SDS011;44782;0.000;0.000;2022-10-31T11:04:07;3.50;;;3.20;;
58992;SDS011;44782;0.000;0.000;2022-10-31T11:06:34;4.10;;;3.10;;
58992;SDS011;44782;0.000;0.000;2022-10-31T11:08:50;3.93;;;3.53;;
58992;SDS011;44782;0.000;0.000;2022-10-31T11:13:35;3.50;;;3.20;;
58992;SDS011;44782;0.000;0.000;2022-10-31T11:16:04;5.37;;;3.40;;
58992;SDS011;44782;0.000;0.000;2022-10-31T11:18:25;4.13;;;3.00;;
58992;SDS011;44782;0.000;0.000;2022-10-31T11:20:42;3.43;;;3.00;;
58992;SDS011;44782;0.000;0.000;2022-10-31T11:23:17;3.87;;;3.07;;
58992;SDS011;44782;0.000;0.000;2022-10-31T11:25:34;3.40;;;3.10;;
58992;SDS011;44782;0.000;0.000;2022-10-31T11:27:59;3.50;;;3.20;;
58992;SDS011;44782;0.000;0.000;2022-10-31T11:30:20;5.50;;;3.10;;
58992;SDS011;44782;0.000;0.000;2022-10-31T11:32:35;3.43;;;3.10;;
58992;SDS011;44782;0.000;0.000;2022-10-31T11:35:00;3.73;;;3.30;;
58992;SDS011;44782;0.000;0.000;2022-10-31T11:37:20;3.30;;;3.00;;
58992;SDS011;44782;0.000;0.000;2022-10-31T11:39:39;4.07;;;3.23;;
58992;SDS011;44782;0.000;0.000;2022-10-31T11:41:59;3.40;;;3.10;;
58992;SDS011;44782;0.000;0.000;2022-10-31T11:44:29;4.47;;;3.20;;
58992;SDS011;44782;0.000;0.000;2022-10-31T11:46:48;3.30;;;3.10;;
58992;SDS011;44782;0.000;0.000;2022-10-31T11:51:52;3.63;;;3.33;;
58992;SDS011;44782;0.000;0.000;2022-10-31T11:54:24;3.50;;;3.20;;
58992;SDS011;44782;0.000;0.000;2022-10-31T11:56:45;3.03;;;2.73;;
58992;SDS011;44782;0.000;0.000;2022-10-31T11:59:02;3.80;;;3.50;;
58992;SDS011;44782;0.000;0.000;2022-10-31T12:01:26;4.43;;;3.40;;
58992;SDS011;44782;0.000;0.000;2022-10-31T12:06:12;3.70;;;3.23;;
58992;SDS011;44782;0.000;0.000;2022-10-31T12:13:54;4.20;;;2.73;;
58992;SDS011;44782;0.000;0.000;2022-10-31T12:39:46;3.60;;;3.13;;
58992;SDS011;44782;0.000;0.000;2022-10-31T12:44:42;4.17;;;3.00;;
58992;SDS011;44782;0.000;0.000;2022-10-31T12:51:50;3.17;;;2.87;;
58992;SDS011;44782;0.000;0.000;2022-10-31T12:57:10;3.53;;;2.97;;
58992;SDS011;44782;0.000;0.000;2022-10-31T12:59:59;4.13;;;3.33;;
58992;SDS011;44782;0.000;0.000;2022-10-31T13:02:20;4.47;;;2.80;;
58992;SDS011;44782;0.000;0.000;2022-10-31T13:04:40;3.60;;;3.20;;
58992;SDS011;44782;0.000;0.000;2022-10-31T13:07:09;4.80;;;3.53;;
58992;SDS011;44782;0.000;0.000;2022-10-31T13:09:34;4.23;;;3.10;;
58992;SDS011;44782;0.000;0.000;2022-10-31T13:11:58;4.17;;;3.13;;
58992;SDS011;44782;0.000;0.000;2022-10-31T13:14:23;4.87;;;3.27;;
58992;SDS011;44782;0.000;0.000;2022-10-31T13:16:41;4.17;;;3.03;;
58992;SDS011;44782;0.000;0.000;2022-10-31T13:19:12;3.53;;;3.23;;
58992;SDS011;44782;0.000;0.000;2022-10-31T13:21:37;3.27;;;2.97;;
58992;SDS011;44782;0.000;0.000;2022-10-31T13:23:57;4.18;;;3.30;;
58992;SDS011;44782;0.000;0.000;2022-10-31T13:26:59;3.40;;;3.10;;
58992;SDS011;44782;0.000;0.000;2022-10-31T13:29:21;6.17;;;3.00;;
58992;SDS011;44782;0.000;0.000;2022-10-31T13:31:44;4.00;;;3.57;;
58992;SDS011;44782;0.000;0.000;2022-10-31T13:34:09;3.87;;;3.47;;
58992;SDS011;44782;0.000;0.000;2022-10-31T13:36:34;4.50;;;3.30;;
58992;SDS011;44782;0.000;0.000;2022-10-31T13:41:46;3.93;;;3.50;;
58992;SDS011;44782;0.000;0.000;2022-10-31T13:44:16;5.15;;;3.60;;
58992;SDS011;44782;0.000;0.000;2022-10-31T13:46:37;5.10;;;3.60;;
58992;SDS011;44782;0.000;0.000;2022-10-31T13:48:54;5.80;;;3.80;;
58992;SDS011;44782;0.000;0.000;2022-10-31T13:51:10;4.33;;;3.53;;
58992;SDS011;44782;0.000;0.000;2022-10-31T13:58:29;4.87;;;3.77;;
58992;SDS011;44782;0.000;0.000;2022-10-31T14:00:46;5.53;;;4.03;;
58992;SDS011;44782;0.000;0.000;2022-10-31T14:03:19;4.30;;;3.90;;
58992;SDS011;44782;0.000;0.000;2022-10-31T14:05:35;3.83;;;3.50;;
58992;SDS011;44782;0.000;0.000;2022-10-31T14:07:51;4.83;;;4.23;;
58992;SDS011;44782;0.000;0.000;2022-10-31T14:13:06;5.27;;;4.00;;
58992;SDS011;44782;0.000;0.000;2022-10-31T14:15:36;6.23;;;4.30;;
58992;SDS011;44782;0.000;0.000;2022-10-31T14:18:05;5.07;;;3.80;;
58992;SDS011;44782;0.000;0.000;2022-10-31T14:22:57;5.47;;;4.30;;
58992;SDS011;44782;0.000;0.000;2022-10-31T14:25:33;4.87;;;4.27;;
58992;SDS011;44782;0.000;0.000;2022-10-31T14:27:50;5.20;;;4.17;;
58992;SDS011;44782;0.000;0.000;2022-10-31T14:30:12;6.57;;;4.30;;
58992;SDS011;44782;0.000;0.000;2022-10-31T14:32:30;6.07;;;4.17;;
58992;SDS011;44782;0.000;0.000;2022-10-31T14:39:31;5.83;;;4.37;;
58992;SDS011;44782;0.000;0.000;2022-10-31T14:50:33;7.50;;;4.70;;
58992;SDS011;44782;0.000;0.000;2022-10-31T14:52:57;5.90;;;4.27;;
58992;SDS011;44782;0.000;0.000;2022-10-31T14:55:16;6.10;;;4.57;;
58992;SDS011;44782;0.000;0.000;2022-10-31T14:57:34;7.17;;;4.30;;
58992;SDS011;44782;0.000;0.000;2022-10-31T14:59:54;6.03;;;4.60;;
58992;SDS011;44782;0.000;0.000;2022-10-31T15:02:18;5.83;;;4.40;;
58992;SDS011;44782;0.000;0.000;2022-10-31T15:04:35;5.30;;;4.30;;
58992;SDS011;44782;0.000;0.000;2022-10-31T15:07:02;5.63;;;4.03;;
58992;SDS011;44782;0.000;0.000;2022-10-31T15:09:25;5.43;;;4.40;;
58992;SDS011;44782;0.000;0.000;2022-10-31T15:11:42;5.67;;;4.20;;
58992;SDS011;44782;0.000;0.000;2022-10-31T15:13:58;5.10;;;4.57;;
58992;SDS011;44782;0.000;0.000;2022-10-31T15:16:19;4.80;;;4.30;;
58992;SDS011;44782;0.000;0.000;2022-10-31T15:18:38;6.13;;;4.23;;
58992;SDS011;44782;0.000;0.000;2022-10-31T15:21:02;6.83;;;4.40;;
58992;SDS011;44782;0.000;0.000;2022-10-31T15:23:23;6.57;;;4.70;;
58992;SDS011;44782;0.000;0.000;2022-10-31T15:25:48;6.90;;;4.83;;
58992;SDS011;44782;0.000;0.000;2022-10-31T15:28:15;6.17;;;4.70;;
58992;SDS011;44782;0.000;0.000;2022-10-31T15:30:36;6.90;;;4.93;;
58992;SDS011;44782;0.000;0.000;2022-10-31T15:32:52;6.80;;;4.60;;
58992;SDS011;44782;0.000;0.000;2022-10-31T15:35:09;5.23;;;4.33;;
58992;SDS011;44782;0.000;0.000;2022-10-31T15:37:28;6.13;;;4.60;;
58992;SDS011;44782;0.000;0.000;2022-10-31T15:39:45;6.17;;;4.87;;
58992;SDS011;44782;0.000;0.000;2022-10-31T15:42:02;5.90;;;5.07;;
58992;SDS011;44782;0.000;0.000;2022-10-31T15:46:41;6.27;;;4.73;;
58992;SDS011;44782;0.000;0.000;2022-10-31T15:48:57;6.77;;;5.30;;
58992;SDS011;44782;0.000;0.000;2022-10-31T15:51:13;6.73;;;5.13;;
58992;SDS011;44782;0.000;0.000;2022-10-31T15:53:41;6.90;;;5.20;;
58992;SDS011;44782;0.000;0.000;2022-10-31T15:56:02;5.93;;;5.17;;
58992;SDS011;44782;0.000;0.000;2022-10-31T15:58:21;5.90;;;4.90;;
58992;SDS011;44782;0.000;0.000;2022-10-31T16:00:37;6.03;;;5.00;;
58992;SDS011;44782;0.000;0.000;2022-10-31T16:05:32;7.27;;;5.03;;
58992;SDS011;44782;0.000;0.000;2022-10-31T16:07:51;6.70;;;4.80;;
58992;SDS011;44782;0.000;0.000;2022-10-31T16:10:21;7.27;;;5.00;;
58992;SDS011;44782;0.000;0.000;2022-10-31T16:12:42;6.97;;;5.10;;
58992;SDS011;44782;0.000;0.000;2022-10-31T16:15:00;7.27;;;5.03;;
58992;SDS011;44782;0.000;0.000;2022-10-31T16:17:20;6.93;;;4.90;;
58992;SDS011;44782;0.000;0.000;2022-10-31T16:19:43;7.50;;;5.33;;